Time;durP1;ratioP1;P1;durP2;ratioP2;P2;SDS_P1;SDS_P2;PMS_P1;PMS_P2;Temp;Humidity;BMP_temperature;BMP_pressure;BME280_temperature;BME280_humidity;BME280_pressure;Samples;Min_cycle;Max_cycle;Signal;HPM_P1;HPM_P2
2022/01/31 00:00:50;;;;;;;19.43;6.10;;;1.30;99.90;;;;;;5013519;28;20076;-78
2022/01/31 00:03:16;;;;;;;18.40;6.57;;;1.30;99.90;;;;;;5013617;28;20054;-78
2022/01/31 00:05:41;;;;;;;23.97;7.00;;;1.30;99.90;;;;;;5013242;28;20415;-78
2022/01/31 00:08:07;;;;;;;20.27;7.37;;;1.30;99.90;;;;;;5013006;28;20447;-78
2022/01/31 00:10:32;;;;;;;21.13;7.20;;;1.30;99.90;;;;;;5012244;28;20030;-78
2022/01/31 00:15:28;;;;;;;14.27;5.87;;;1.30;99.90;;;;;;5013221;28;20018;-78
2022/01/31 00:17:54;;;;;;;14.43;4.20;;;1.30;99.90;;;;;;5011694;28;20034;-78
2022/01/31 00:20:20;;;;;;;16.40;5.13;;;1.20;99.90;;;;;;5012849;28;20537;-78
2022/01/31 00:22:45;;;;;;;17.30;4.33;;;1.20;99.90;;;;;;5013084;28;20034;-78
2022/01/31 00:25:11;;;;;;;18.07;5.47;;;1.20;99.90;;;;;;5009012;28;20072;-78
2022/01/31 00:27:37;;;;;;;14.73;5.10;;;1.20;99.90;;;;;;5013149;28;20030;-78
2022/01/31 00:30:04;;;;;;;14.40;4.53;;;1.20;99.90;;;;;;5012474;28;20112;-78
2022/01/31 00:32:29;;;;;;;13.93;5.23;;;1.20;99.90;;;;;;5012852;28;20104;-78
2022/01/31 00:34:57;;;;;;;15.00;4.40;;;1.20;99.90;;;;;;5012989;28;20048;-78
2022/01/31 00:37:23;;;;;;;11.00;4.10;;;1.20;99.90;;;;;;5012535;28;20046;-78
2022/01/31 00:39:48;;;;;;;17.97;5.00;;;1.20;99.90;;;;;;5012494;28;20026;-77
2022/01/31 00:42:14;;;;;;;14.03;5.13;;;1.20;99.90;;;;;;5012618;28;20037;-78
2022/01/31 00:44:50;;;;;;;14.87;5.50;;;1.20;99.90;;;;;;5012699;28;20034;-78
2022/01/31 00:47:19;;;;;;;13.03;4.43;;;1.20;99.90;;;;;;5012863;28;20032;-78
2022/01/31 00:50:19;;;;;;;20.33;4.87;;;1.30;99.90;;;;;;5012276;28;20430;-78
2022/01/31 00:52:39;;;;;;;12.23;4.40;;;1.30;99.90;;;;;;5011062;28;20799;-78
2022/01/31 00:55:06;;;;;;;20.80;6.07;;;1.30;99.90;;;;;;5011442;28;20028;-78
2022/01/31 00:57:32;;;;;;;15.53;4.77;;;1.30;99.90;;;;;;5010233;28;20051;-78
2022/01/31 00:59:58;;;;;;;20.50;4.67;;;1.30;99.90;;;;;;5012390;28;20096;-78
2022/01/31 01:02:25;;;;;;;10.30;3.93;;;1.30;99.90;;;;;;5012208;28;20065;-78
2022/01/31 01:04:51;;;;;;;15.73;5.97;;;1.40;99.90;;;;;;5012167;28;20033;-78
2022/01/31 01:07:19;;;;;;;13.37;4.27;;;1.40;99.90;;;;;;5012472;28;20070;-78
2022/01/31 01:09:45;;;;;;;13.20;4.70;;;1.50;99.90;;;;;;5010867;28;20108;-78
2022/01/31 01:12:13;;;;;;;14.47;4.60;;;1.40;99.90;;;;;;5012214;28;20040;-78
2022/01/31 01:14:39;;;;;;;14.40;5.20;;;1.40;99.90;;;;;;5012100;28;20030;-78
2022/01/31 01:17:04;;;;;;;16.13;5.33;;;1.30;99.90;;;;;;5012514;28;20084;-78
2022/01/31 01:19:30;;;;;;;16.23;4.70;;;1.30;99.90;;;;;;5012285;28;20033;-78
2022/01/31 01:21:56;;;;;;;12.40;4.40;;;1.30;99.90;;;;;;5012019;28;20034;-79
2022/01/31 01:24:22;;;;;;;14.63;5.17;;;1.20;99.90;;;;;;5011962;28;20059;-79
2022/01/31 01:26:48;;;;;;;13.00;4.80;;;1.20;99.90;;;;;;5011038;28;20102;-79
2022/01/31 01:29:14;;;;;;;13.33;4.97;;;1.20;99.90;;;;;;5012193;28;20029;-79
2022/01/31 01:31:40;;;;;;;14.77;5.07;;;1.20;99.90;;;;;;5012322;28;20034;-79
2022/01/31 01:34:06;;;;;;;17.87;5.63;;;1.20;99.90;;;;;;5011444;28;20137;-78
2022/01/31 01:36:32;;;;;;;22.30;5.00;;;1.20;99.90;;;;;;5012050;28;20176;-78
2022/01/31 01:38:58;;;;;;;16.20;5.40;;;1.20;99.90;;;;;;5012069;28;20046;-78
2022/01/31 01:41:25;;;;;;;15.67;4.90;;;1.20;99.90;;;;;;5012181;28;20097;-78
2022/01/31 01:43:50;;;;;;;21.43;5.10;;;1.20;99.90;;;;;;5012023;28;20411;-78
2022/01/31 01:46:16;;;;;;;21.33;5.03;;;1.20;99.90;;;;;;5011906;28;20118;-79
2022/01/31 01:48:41;;;;;;;19.03;4.57;;;1.20;99.90;;;;;;5011893;28;20022;-79
2022/01/31 01:51:07;;;;;;;16.57;5.23;;;1.30;99.90;;;;;;5012028;28;20065;-79
2022/01/31 01:53:33;;;;;;;20.77;4.90;;;1.30;99.90;;;;;;5011923;28;20378;-79
2022/01/31 01:55:59;;;;;;;18.10;4.70;;;1.30;99.90;;;;;;5010584;28;20041;-78
2022/01/31 01:58:29;;;;;;;17.17;4.67;;;1.30;99.90;;;;;;5011818;28;20772;-78
2022/01/31 02:01:02;;;;;;;14.53;5.20;;;1.30;99.90;;;;;;5010525;28;20022;-78
2022/01/31 02:03:29;;;;;;;14.67;5.07;;;1.30;99.90;;;;;;5011761;28;20129;-78
2022/01/31 02:05:56;;;;;;;11.77;5.07;;;1.30;99.90;;;;;;5010611;28;20028;-78
2022/01/31 02:08:24;;;;;;;14.27;5.10;;;1.30;99.90;;;;;;5012952;28;20050;-78
2022/01/31 02:10:50;;;;;;;16.93;5.07;;;1.30;99.90;;;;;;5014457;28;20021;-78
2022/01/31 02:13:16;;;;;;;16.60;5.20;;;1.30;99.90;;;;;;5013855;28;20045;-79
2022/01/31 02:15:44;;;;;;;15.73;4.67;;;1.30;99.90;;;;;;5015225;28;20026;-78
2022/01/31 02:18:10;;;;;;;16.63;4.77;;;1.30;99.90;;;;;;5015118;28;20095;-78
2022/01/31 02:20:41;;;;;;;13.90;4.33;;;1.30;99.90;;;;;;5015418;28;20033;-78
2022/01/31 02:23:09;;;;;;;12.00;4.20;;;1.30;99.90;;;;;;5014662;28;20026;-77
2022/01/31 02:26:01;;;;;;;13.90;4.57;;;1.30;99.90;;;;;;5014820;28;20025;-77
2022/01/31 02:28:28;;;;;;;14.50;4.87;;;1.20;99.90;;;;;;4995314;28;20100;-78
2022/01/31 02:30:55;;;;;;;25.07;5.30;;;1.20;99.90;;;;;;4995418;28;20034;-77
2022/01/31 02:33:21;;;;;;;15.27;4.90;;;1.20;99.90;;;;;;5010916;28;20092;-78
2022/01/31 02:35:48;;;;;;;16.17;4.80;;;1.20;99.90;;;;;;5014698;28;20153;-78
2022/01/31 02:38:15;;;;;;;14.37;4.50;;;1.20;99.90;;;;;;5014796;28;20029;-78
2022/01/31 02:40:41;;;;;;;14.93;5.17;;;1.20;99.90;;;;;;5014774;28;20095;-78
2022/01/31 02:43:07;;;;;;;12.97;4.53;;;1.20;99.90;;;;;;5014686;28;20324;-78
2022/01/31 02:45:33;;;;;;;15.40;4.33;;;1.20;99.90;;;;;;5014690;28;20037;-78
2022/01/31 02:48:01;;;;;;;13.60;4.90;;;1.20;99.90;;;;;;5014440;28;20029;-78
2022/01/31 02:50:27;;;;;;;19.23;5.97;;;1.20;99.90;;;;;;5014358;28;20100;-77
2022/01/31 02:55:39;;;;;;;20.50;5.57;;;1.30;99.90;;;;;;5014506;28;20567;-78
2022/01/31 02:58:04;;;;;;;15.63;4.80;;;1.30;99.90;;;;;;5014240;28;20072;-78
2022/01/31 03:00:30;;;;;;;13.13;4.67;;;1.30;99.90;;;;;;5014270;28;20199;-82
2022/01/31 03:02:55;;;;;;;17.63;4.60;;;1.30;99.90;;;;;;5013797;28;20045;-82
2022/01/31 03:05:21;;;;;;;12.63;5.23;;;1.30;99.90;;;;;;5013899;28;20026;-82
2022/01/31 03:07:46;;;;;;;14.03;4.40;;;1.40;99.90;;;;;;5014031;28;20026;-82
2022/01/31 03:10:12;;;;;;;12.43;4.70;;;1.30;99.90;;;;;;5013773;28;20033;-82
2022/01/31 03:12:37;;;;;;;14.67;5.00;;;1.40;99.90;;;;;;5014021;28;20037;-82
2022/01/31 03:15:04;;;;;;;21.53;5.73;;;1.40;99.90;;;;;;5012186;28;20025;-82
2022/01/31 03:17:29;;;;;;;10.50;4.40;;;1.40;99.90;;;;;;5013609;28;20084;-81
2022/01/31 03:19:55;;;;;;;18.30;5.37;;;1.40;99.90;;;;;;5011802;28;20018;-82
2022/01/31 03:22:21;;;;;;;20.77;5.30;;;1.40;99.90;;;;;;5013779;28;20471;-82
2022/01/31 03:24:48;;;;;;;17.23;4.37;;;1.40;99.90;;;;;;5011108;28;20018;-82
2022/01/31 03:27:14;;;;;;;12.43;4.50;;;1.40;99.90;;;;;;4993814;28;20029;-81
2022/01/31 03:29:40;;;;;;;16.73;5.07;;;1.40;99.90;;;;;;4994087;28;20026;-82
2022/01/31 03:32:06;;;;;;;15.90;4.57;;;1.40;99.90;;;;;;5003589;28;20387;-82
2022/01/31 03:34:32;;;;;;;21.93;5.80;;;1.40;99.90;;;;;;5013004;28;20359;-82
2022/01/31 03:36:58;;;;;;;14.20;3.93;;;1.40;99.90;;;;;;5013398;28;20032;-81
2022/01/31 03:39:23;;;;;;;17.40;5.00;;;1.40;99.90;;;;;;5003146;28;20109;-81
2022/01/31 03:41:49;;;;;;;17.40;5.97;;;1.40;99.90;;;;;;4994223;28;20030;-81
2022/01/31 03:44:14;;;;;;;16.03;5.43;;;1.40;99.90;;;;;;5011322;28;20177;-81
2022/01/31 03:46:40;;;;;;;20.53;5.47;;;1.40;99.90;;;;;;5012895;28;20042;-81
2022/01/31 03:49:06;;;;;;;14.47;5.00;;;1.40;99.90;;;;;;5013356;28;20501;-80
2022/01/31 03:51:31;;;;;;;13.50;4.17;;;1.40;99.90;;;;;;5013320;28;20037;-77
2022/01/31 03:53:57;;;;;;;17.37;5.00;;;1.40;99.90;;;;;;5015323;28;20415;-90
2022/01/31 03:56:22;;;;;;;22.53;5.37;;;1.40;99.90;;;;;;5015701;28;20119;-89
2022/01/31 03:58:48;;;;;;;14.40;4.30;;;1.40;99.90;;;;;;5012163;28;20057;-79
2022/01/31 04:01:14;;;;;;;14.97;4.93;;;1.40;99.90;;;;;;5013053;28;20033;-79
2022/01/31 04:03:39;;;;;;;14.70;4.80;;;1.40;99.90;;;;;;5013162;28;20708;-79
2022/01/31 04:06:05;;;;;;;12.90;4.57;;;1.40;99.90;;;;;;5012858;28;20033;-78
2022/01/31 04:08:31;;;;;;;12.80;4.37;;;1.40;99.90;;;;;;5013108;28;20367;-79
2022/01/31 04:10:56;;;;;;;13.90;4.20;;;1.50;99.90;;;;;;5013080;28;20475;-78
2022/01/31 04:13:22;;;;;;;20.17;4.80;;;1.40;99.90;;;;;;5012792;28;20030;-78
2022/01/31 04:15:47;;;;;;;19.10;4.70;;;1.50;99.90;;;;;;5013301;28;20018;-79
2022/01/31 04:18:14;;;;;;;16.10;4.73;;;1.50;99.90;;;;;;5012866;28;20447;-78
2022/01/31 04:20:40;;;;;;;9.13;3.67;;;1.50;99.90;;;;;;5012804;28;20108;-78
2022/01/31 04:23:10;;;;;;;15.57;5.67;;;1.50;99.90;;;;;;5012621;28;20116;-78
2022/01/31 04:28:19;;;;;;;12.53;4.33;;;1.50;99.90;;;;;;5012804;28;20041;-80
2022/01/31 04:30:53;;;;;;;17.30;4.43;;;1.50;99.90;;;;;;5027936;28;20108;-79
2022/01/31 04:33:21;;;;;;;19.30;5.47;;;1.50;99.90;;;;;;5012707;28;20363;-79
2022/01/31 04:35:47;;;;;;;14.40;4.60;;;1.50;99.90;;;;;;5012910;28;20025;-79
2022/01/31 04:38:12;;;;;;;15.73;4.30;;;1.50;99.90;;;;;;5012615;28;20482;-78
2022/01/31 04:40:38;;;;;;;16.50;4.77;;;1.60;99.90;;;;;;5012709;28;20032;-78
2022/01/31 04:43:04;;;;;;;17.17;4.63;;;1.60;99.90;;;;;;5012706;28;20026;-78
2022/01/31 04:45:29;;;;;;;15.00;4.50;;;1.60;99.90;;;;;;5012769;28;20400;-78
2022/01/31 04:47:55;;;;;;;19.77;4.47;;;1.60;99.90;;;;;;5012306;28;20025;-78
2022/01/31 04:50:20;;;;;;;15.37;4.10;;;1.60;99.90;;;;;;4992428;28;20425;-78
2022/01/31 04:52:46;;;;;;;14.03;4.40;;;1.60;99.90;;;;;;4991370;28;20118;-79
2022/01/31 04:55:12;;;;;;;20.90;4.20;;;1.60;99.90;;;;;;4992301;28;20463;-78
2022/01/31 04:57:38;;;;;;;16.83;5.47;;;1.60;99.90;;;;;;4992899;28;20026;-77
2022/01/31 05:00:07;;;;;;;14.90;4.30;;;1.60;99.90;;;;;;5007091;28;20014;-79
2022/01/31 05:02:33;;;;;;;19.37;4.33;;;1.70;99.90;;;;;;5012157;28;20050;-78
2022/01/31 05:04:59;;;;;;;14.93;4.33;;;1.70;99.90;;;;;;5012550;28;20026;-78
2022/01/31 05:07:25;;;;;;;12.53;4.33;;;1.80;99.90;;;;;;5007822;28;20106;-78
2022/01/31 05:09:50;;;;;;;13.73;4.60;;;1.80;99.90;;;;;;5007108;28;20125;-79
2022/01/31 05:12:16;;;;;;;14.73;4.17;;;1.80;99.90;;;;;;5010768;28;20038;-78
2022/01/31 05:14:42;;;;;;;12.93;4.23;;;1.80;99.90;;;;;;5009078;28;20019;-78
2022/01/31 05:17:09;;;;;;;21.43;4.77;;;1.80;99.90;;;;;;5001195;28;20526;-88
2022/01/31 05:19:34;;;;;;;20.00;5.03;;;1.90;99.90;;;;;;5002804;28;20084;-82
2022/01/31 05:22:00;;;;;;;15.30;5.43;;;1.90;99.90;;;;;;4992057;28;20030;-82
2022/01/31 05:24:26;;;;;;;10.50;5.03;;;1.90;99.90;;;;;;5007921;28;20049;-89
2022/01/31 05:26:53;;;;;;;13.10;5.93;;;1.90;99.90;;;;;;5008479;28;20030;-90
2022/01/31 05:29:20;;;;;;;12.87;5.30;;;2.10;99.90;;;;;;5008052;28;20045;-91
2022/01/31 05:31:46;;;;;;;13.17;5.50;;;2.10;99.90;;;;;;4998328;28;20054;-90
2022/01/31 05:34:12;;;;;;;16.13;6.03;;;2.20;99.90;;;;;;5000438;28;20380;-91
2022/01/31 05:36:40;;;;;;;13.90;6.03;;;2.30;99.90;;;;;;5011084;28;20041;-90
2022/01/31 05:39:06;;;;;;;13.87;6.57;;;2.40;99.90;;;;;;5003996;28;20100;-90
2022/01/31 05:41:32;;;;;;;13.00;6.50;;;2.50;99.90;;;;;;5004636;28;20097;-89
2022/01/31 05:43:57;;;;;;;12.17;5.80;;;2.60;99.90;;;;;;5016174;28;20033;-89
2022/01/31 05:46:23;;;;;;;13.33;6.40;;;2.60;99.90;;;;;;5016748;28;20037;-90
2022/01/31 05:48:49;;;;;;;17.00;7.03;;;2.70;99.90;;;;;;5013872;28;20115;-90
2022/01/31 05:51:20;;;;;;;15.40;7.30;;;2.70;99.90;;;;;;5013201;28;20079;-90
2022/01/31 05:53:47;;;;;;;13.23;6.53;;;2.70;99.90;;;;;;5003889;28;20534;-90
2022/01/31 05:56:14;;;;;;;11.27;6.17;;;2.70;99.90;;;;;;5015322;28;20494;-90
2022/01/31 05:58:40;;;;;;;13.63;7.43;;;2.70;99.90;;;;;;5004257;28;20018;-90
2022/01/31 06:01:06;;;;;;;15.63;6.57;;;2.70;99.90;;;;;;5020620;28;20417;-90
2022/01/31 06:03:33;;;;;;;13.80;6.83;;;2.80;99.90;;;;;;5016278;28;20046;-89
2022/01/31 06:05:58;;;;;;;16.47;6.53;;;3.00;99.90;;;;;;5015316;28;20096;-84
2022/01/31 06:08:24;;;;;;;14.17;5.80;;;2.90;99.90;;;;;;5003672;28;20057;-84
2022/01/31 06:10:50;;;;;;;10.27;5.67;;;3.00;99.90;;;;;;5001673;28;20050;-89
2022/01/31 06:13:17;;;;;;;15.27;5.97;;;3.00;99.90;;;;;;5013043;28;20045;-86
2022/01/31 06:15:42;;;;;;;14.33;5.80;;;2.90;99.90;;;;;;5015992;28;20113;-85
2022/01/31 06:18:08;;;;;;;14.27;4.97;;;2.70;99.90;;;;;;5013853;28;20467;-84
2022/01/31 06:20:34;;;;;;;13.03;5.43;;;2.70;99.90;;;;;;5015047;28;20040;-84
2022/01/31 06:23:02;;;;;;;10.87;4.23;;;2.70;99.90;;;;;;5012175;28;20471;-84
2022/01/31 06:25:27;;;;;;;8.90;4.30;;;2.70;99.90;;;;;;5002966;28;20038;-84
2022/01/31 06:27:53;;;;;;;13.03;4.97;;;2.60;99.90;;;;;;5010430;28;20493;-84
2022/01/31 06:30:19;;;;;;;9.93;3.87;;;2.70;99.90;;;;;;5002431;28;20032;-84
2022/01/31 06:32:45;;;;;;;8.33;3.93;;;2.80;99.90;;;;;;5008177;28;20471;-84
2022/01/31 06:35:12;;;;;;;13.47;3.83;;;2.80;99.90;;;;;;5014459;28;20025;-83
2022/01/31 06:37:38;;;;;;;11.77;4.43;;;2.80;99.90;;;;;;5015175;28;20018;-84
2022/01/31 06:40:05;;;;;;;10.90;3.77;;;2.80;99.90;;;;;;5012954;28;20049;-83
2022/01/31 06:42:32;;;;;;;11.63;3.47;;;2.70;99.90;;;;;;5015443;28;20076;-87
2022/01/31 06:44:58;;;;;;;7.67;3.20;;;2.70;99.90;;;;;;5014434;28;20113;-87
2022/01/31 06:47:24;;;;;;;11.33;3.67;;;2.80;99.90;;;;;;5014580;28;20117;-86
2022/01/31 06:49:49;;;;;;;12.60;3.37;;;2.80;99.90;;;;;;5015803;28;20030;-87
2022/01/31 06:52:15;;;;;;;11.47;3.57;;;2.80;99.90;;;;;;5014305;28;20101;-87
2022/01/31 06:54:42;;;;;;;7.67;3.10;;;3.00;99.90;;;;;;5014453;28;20109;-87
2022/01/31 06:57:08;;;;;;;9.63;2.90;;;2.90;99.90;;;;;;5015147;28;20045;-84
2022/01/31 06:59:34;;;;;;;16.97;4.07;;;3.00;99.90;;;;;;5015522;28;20030;-83
2022/01/31 07:01:59;;;;;;;11.23;3.80;;;3.00;99.90;;;;;;5013688;28;20040;-83
2022/01/31 07:04:25;;;;;;;10.13;3.20;;;3.00;99.90;;;;;;5014921;28;20546;-83
2022/01/31 07:06:50;;;;;;;11.30;2.63;;;3.10;99.90;;;;;;5014872;28;20041;-83
2022/01/31 07:09:16;;;;;;;9.73;2.83;;;3.20;99.90;;;;;;5014697;28;20034;-83
2022/01/31 07:11:43;;;;;;;10.43;3.23;;;3.20;99.90;;;;;;5014748;28;20041;-84
2022/01/31 07:14:29;;;;;;;16.83;3.60;;;3.10;99.90;;;;;;5014815;28;20172;-84
2022/01/31 07:16:54;;;;;;;13.60;3.22;;;3.10;99.90;;;;;;5014703;28;20026;-84
2022/01/31 07:19:23;;;;;;;11.10;3.37;;;3.10;99.90;;;;;;5014884;28;20037;-84
2022/01/31 07:21:50;;;;;;;12.60;2.90;;;3.10;99.90;;;;;;5015027;28;20104;-83
2022/01/31 07:26:43;;;;;;;15.30;4.40;;;3.10;99.90;;;;;;5014651;28;20374;-84
2022/01/31 07:29:09;;;;;;;10.03;3.23;;;3.10;99.90;;;;;;5014933;28;20022;-83
2022/01/31 07:31:35;;;;;;;10.43;2.80;;;3.10;99.90;;;;;;5012994;28;20475;-82
2022/01/31 07:34:01;;;;;;;8.97;3.40;;;3.10;99.90;;;;;;5010924;28;20076;-84
2022/01/31 07:36:27;;;;;;;8.90;2.90;;;3.20;99.90;;;;;;5009956;28;20422;-84
2022/01/31 07:38:53;;;;;;;8.00;2.80;;;3.20;99.90;;;;;;5010096;28;20034;-83
2022/01/31 07:41:24;;;;;;;11.33;3.30;;;3.20;99.90;;;;;;5012596;28;20056;-87
2022/01/31 07:43:49;;;;;;;13.00;3.17;;;3.30;99.90;;;;;;5012370;28;20029;-88
2022/01/31 07:46:16;;;;;;;9.80;3.00;;;3.30;99.90;;;;;;5012030;28;20429;-79
2022/01/31 07:48:41;;;;;;;12.03;3.07;;;3.30;99.90;;;;;;5011475;28;20625;-80
2022/01/31 07:51:10;;;;;;;7.40;3.03;;;3.30;99.90;;;;;;5012534;28;20109;-81
2022/01/31 07:53:39;;;;;;;11.23;3.17;;;3.40;99.90;;;;;;5009438;28;20038;-80
2022/01/31 07:56:08;;;;;;;7.10;2.70;;;3.50;99.90;;;;;;5011378;28;20022;-80
2022/01/31 07:58:35;;;;;;;5.97;2.63;;;3.60;99.90;;;;;;5011660;28;20901;-80
2022/01/31 08:01:00;;;;;;;9.07;3.20;;;3.60;99.90;;;;;;5009725;28;20033;-80
2022/01/31 08:03:26;;;;;;;8.23;2.63;;;3.60;99.90;;;;;;5012129;28;20387;-81
2022/01/31 08:05:51;;;;;;;7.63;3.13;;;3.60;99.90;;;;;;5012464;28;20042;-81
2022/01/31 08:08:17;;;;;;;11.37;3.30;;;3.70;99.90;;;;;;5011781;28;20041;-81
2022/01/31 08:10:43;;;;;;;10.53;3.43;;;3.80;99.90;;;;;;5011380;28;20129;-81
2022/01/31 08:13:09;;;;;;;10.50;3.33;;;3.90;99.90;;;;;;5011763;28;20378;-81
2022/01/31 08:16:00;;;;;;;9.40;3.50;;;3.90;99.90;;;;;;5013159;28;20090;-81
2022/01/31 08:18:26;;;;;;;9.87;3.20;;;3.90;99.90;;;;;;5011794;28;20374;-81
2022/01/31 08:20:52;;;;;;;6.47;3.20;;;4.10;99.90;;;;;;5011763;28;20036;-84
2022/01/31 08:23:18;;;;;;;8.70;3.37;;;4.10;99.90;;;;;;5012367;28;20057;-83
2022/01/31 08:25:48;;;;;;;8.83;4.03;;;4.10;99.90;;;;;;5010547;28;20031;-84
2022/01/31 08:28:14;;;;;;;10.57;3.80;;;4.00;99.90;;;;;;5012046;28;20037;-84
2022/01/31 08:30:55;;;;;;;6.57;3.00;;;4.00;99.90;;;;;;5012916;28;20030;-84
2022/01/31 08:33:42;;;;;;;12.90;3.03;;;4.00;99.90;;;;;;5007508;28;20080;-87
2022/01/31 08:36:08;;;;;;;8.33;3.50;;;4.00;99.90;;;;;;5012636;28;20052;-85
2022/01/31 08:38:36;;;;;;;11.23;4.13;;;3.90;99.90;;;;;;5013523;28;20485;-86
2022/01/31 08:41:03;;;;;;;7.20;3.60;;;3.80;99.90;;;;;;5014207;28;20022;-86
2022/01/31 08:43:29;;;;;;;9.53;3.17;;;3.70;99.90;;;;;;5014037;28;20037;-86
2022/01/31 08:45:56;;;;;;;7.37;3.17;;;3.70;99.90;;;;;;5012487;28;20062;-87
2022/01/31 08:48:23;;;;;;;9.97;3.77;;;3.60;99.90;;;;;;5013895;28;20038;-86
2022/01/31 08:50:50;;;;;;;10.63;4.60;;;3.50;99.90;;;;;;5013703;28;20109;-85
2022/01/31 08:53:16;;;;;;;7.97;3.57;;;3.50;99.90;;;;;;5013574;28;20038;-87
2022/01/31 08:55:48;;;;;;;7.03;3.53;;;3.50;99.90;;;;;;5011852;28;20057;-85
2022/01/31 08:58:15;;;;;;;8.17;3.20;;;3.50;99.90;;;;;;5013108;28;20037;-84
2022/01/31 09:00:42;;;;;;;6.13;3.40;;;3.50;99.90;;;;;;5011211;28;20374;-87
2022/01/31 09:05:37;;;;;;;10.53;4.43;;;3.50;99.90;;;;;;5011568;28;20034;-86
2022/01/31 09:08:04;;;;;;;7.87;3.83;;;3.40;99.90;;;;;;5011159;28;20034;-88
2022/01/31 09:10:30;;;;;;;6.60;3.37;;;3.40;99.90;;;;;;5010476;28;20037;-88
2022/01/31 09:12:55;;;;;;;8.00;3.40;;;3.40;99.90;;;;;;5010556;28;20033;-89
2022/01/31 09:15:22;;;;;;;6.30;3.73;;;3.50;99.90;;;;;;5012761;28;20026;-88
2022/01/31 09:17:48;;;;;;;9.60;3.80;;;3.50;99.90;;;;;;5012563;28;20033;-88
2022/01/31 09:20:13;;;;;;;6.87;3.23;;;3.60;99.90;;;;;;5012624;28;20414;-88
2022/01/31 09:22:39;;;;;;;5.77;3.43;;;3.60;99.90;;;;;;5012683;28;20026;-88
2022/01/31 09:25:05;;;;;;;6.10;3.53;;;3.70;99.90;;;;;;5012535;28;20092;-87
2022/01/31 09:27:31;;;;;;;8.83;3.10;;;3.60;99.90;;;;;;5010962;28;20843;-87
2022/01/31 09:29:57;;;;;;;6.70;3.47;;;3.70;99.90;;;;;;5010915;28;20034;-86
2022/01/31 09:32:24;;;;;;;5.27;3.23;;;3.80;99.90;;;;;;5010382;28;20038;-86
2022/01/31 09:34:52;;;;;;;5.03;3.17;;;3.70;99.90;;;;;;5011467;28;20037;-82
2022/01/31 09:37:20;;;;;;;7.07;3.07;;;3.70;99.90;;;;;;5011198;28;20873;-82
2022/01/31 09:39:48;;;;;;;8.63;3.20;;;3.60;99.90;;;;;;5011395;28;20018;-82
2022/01/31 09:42:21;;;;;;;5.83;3.57;;;3.60;99.90;;;;;;5011252;28;20026;-82
2022/01/31 09:47:21;;;;;;;5.07;2.50;;;3.50;99.90;;;;;;5011868;28;20029;-82
2022/01/31 09:49:47;;;;;;;5.67;2.60;;;3.40;99.90;;;;;;5011396;28;20045;-83
2022/01/31 09:52:14;;;;;;;7.67;2.40;;;3.50;99.90;;;;;;5011637;28;20044;-82
2022/01/31 09:54:40;;;;;;;5.50;2.70;;;3.50;99.90;;;;;;5010684;28;20394;-82
2022/01/31 09:57:06;;;;;;;3.93;2.73;;;3.60;99.90;;;;;;5011499;28;20030;-82
2022/01/31 09:59:31;;;;;;;7.03;3.30;;;3.60;99.90;;;;;;5011693;28;20026;-82
2022/01/31 10:01:58;;;;;;;4.90;2.90;;;3.60;99.90;;;;;;5011162;28;20037;-82
2022/01/31 10:04:35;;;;;;;3.97;2.40;;;3.60;99.90;;;;;;5011270;28;20029;-82
2022/01/31 10:07:03;;;;;;;4.40;2.63;;;3.60;99.90;;;;;;5011690;28;20041;-81
2022/01/31 10:09:31;;;;;;;3.80;2.67;;;3.60;99.90;;;;;;5011257;28;20717;-82
2022/01/31 10:17:45;;;;;;;2.87;2.10;;;3.70;99.90;;;;;;5011285;28;20486;-82
2022/01/31 10:20:30;;;;;;;4.53;2.60;;;3.70;99.90;;;;;;5010984;28;20156;-82
2022/01/31 10:23:06;;;;;;;;;;;3.70;99.90;;;;;;5010266;28;20042;-82
2022/01/31 10:25:33;;;;;;;3.75;2.78;;;3.60;99.90;;;;;;5010676;28;19953;-82
2022/01/31 10:27:59;;;;;;;4.80;2.30;;;3.70;99.90;;;;;;4993669;28;20582;-82
2022/01/31 10:30:27;;;;;;;4.00;2.27;;;3.60;99.90;;;;;;5001841;28;20487;-82
2022/01/31 10:32:55;;;;;;;3.47;2.23;;;3.60;99.90;;;;;;5013565;28;20029;-82
2022/01/31 10:35:23;;;;;;;1.93;1.60;;;3.70;99.90;;;;;;5014052;28;20034;-84
2022/01/31 10:37:54;;;;;;;3.63;2.00;;;3.80;99.90;;;;;;5014846;28;20022;-83
2022/01/31 10:56:38;;;;;;;3.00;1.90;;;4.10;99.90;;;;;;5012451;28;20026;-82
2022/01/31 10:59:08;;;;;;;2.33;1.53;;;3.90;99.90;;;;;;5012177;28;20080;-82
2022/01/31 11:01:34;;;;;;;2.20;1.63;;;3.80;99.90;;;;;;5011451;28;20101;-82
2022/01/31 11:04:05;;;;;;;2.03;1.50;;;3.80;99.90;;;;;;5012359;28;20395;-82
2022/01/31 11:06:31;;;;;;;1.70;1.40;;;3.60;99.90;;;;;;5013148;28;20034;-83
2022/01/31 11:09:04;;;;;;;2.53;1.40;;;3.60;99.90;;;;;;5011185;28;20498;-84
2022/01/31 11:11:31;;;;;;;2.67;1.53;;;3.60;99.90;;;;;;4994285;28;20113;-82
2022/01/31 11:13:59;;;;;;;3.07;1.47;;;3.60;99.90;;;;;;5009664;28;20031;-82
2022/01/31 11:16:24;;;;;;;2.70;1.73;;;3.70;99.90;;;;;;4994353;28;20367;-82
2022/01/31 11:18:53;;;;;;;1.80;1.43;;;3.70;99.90;;;;;;4996989;28;20031;-82
2022/01/31 11:21:20;;;;;;;2.10;1.50;;;3.90;99.90;;;;;;5014381;28;20122;-82
2022/01/31 11:23:50;;;;;;;3.50;1.70;;;4.00;99.90;;;;;;5014336;28;20036;-82
2022/01/31 11:26:18;;;;;;;1.70;1.40;;;4.10;99.90;;;;;;5014418;28;20381;-85
2022/01/31 11:28:47;;;;;;;2.80;1.57;;;4.10;99.90;;;;;;5012957;28;20068;-82
2022/01/31 11:31:16;;;;;;;1.97;1.53;;;4.20;99.90;;;;;;5013371;28;20092;-83
2022/01/31 11:33:43;;;;;;;2.00;1.50;;;4.40;99.90;;;;;;5013460;28;20721;-81
2022/01/31 11:36:09;;;;;;;1.37;1.20;;;4.50;99.90;;;;;;5013779;28;20026;-83
2022/01/31 11:38:35;;;;;;;2.20;1.37;;;4.60;99.90;;;;;;5013468;28;20026;-83
2022/01/31 11:41:05;;;;;;;5.10;1.80;;;4.70;99.90;;;;;;5013108;28;20439;-81
2022/01/31 11:43:32;;;;;;;1.83;1.37;;;4.70;99.90;;;;;;5013197;28;20036;-82
2022/01/31 11:46:00;;;;;;;1.63;1.30;;;4.70;99.90;;;;;;5013512;28;20030;-82
2022/01/31 11:48:30;;;;;;;2.93;1.53;;;4.70;99.90;;;;;;5011874;28;20040;-81
2022/01/31 11:51:01;;;;;;;2.00;1.20;;;4.70;99.90;;;;;;5014033;28;20056;-87
2022/01/31 11:53:36;;;;;;;1.97;1.20;;;4.70;99.90;;;;;;5012867;28;20823;-85
2022/01/31 11:56:14;;;;;;;1.30;1.20;;;4.60;99.90;;;;;;5012588;28;20098;-86
2022/01/31 11:58:47;;;;;;;1.83;1.10;;;4.50;99.90;;;;;;5012428;28;20180;-86
2022/01/31 12:01:13;;;;;;;0.90;0.90;;;4.50;99.90;;;;;;5006931;28;20060;-85
2022/01/31 12:03:57;;;;;;;1.40;0.90;;;4.50;99.90;;;;;;5011090;28;20401;-84
2022/01/31 12:06:25;;;;;;;1.30;1.10;;;4.40;99.90;;;;;;5009501;28;20057;-84
2022/01/31 12:09:03;;;;;;;1.40;1.00;;;4.40;99.90;;;;;;5008962;28;20117;-84
2022/01/31 12:11:30;;;;;;;1.90;1.20;;;4.50;99.90;;;;;;5025981;28;20045;-84
2022/01/31 12:14:01;;;;;;;1.53;1.10;;;4.50;99.90;;;;;;5012891;28;20114;-83
2022/01/31 12:19:46;;;;;;;1.67;1.03;;;4.50;99.90;;;;;;5012333;28;20026;-82
2022/01/31 12:22:46;;;;;;;2.07;1.10;;;4.60;99.90;;;;;;4996154;28;20038;-87
2022/01/31 12:25:31;;;;;;;2.47;1.33;;;4.60;99.90;;;;;;5019564;28;20034;-88
2022/01/31 12:28:18;;;;;;;5.03;1.40;;;4.80;99.90;;;;;;5011796;28;20061;-87
2022/01/31 12:30:44;;;;;;;1.57;1.10;;;4.80;99.90;;;;;;5012976;28;20285;-87
2022/01/31 12:33:39;;;;;;;1.70;1.13;;;4.70;99.90;;;;;;5011277;28;20112;-86
2022/01/31 12:36:04;;;;;;;2.45;1.40;;;4.80;99.90;;;;;;5013418;28;20443;-87
2022/01/31 12:38:33;;;;;;;3.37;1.50;;;4.80;99.90;;;;;;5012828;28;20097;-86
2022/01/31 12:41:04;;;;;;;2.43;1.30;;;4.80;99.90;;;;;;5013222;28;20715;-87
2022/01/31 12:43:51;;;;;;;1.53;1.23;;;4.80;99.90;;;;;;4993632;28;20043;-87
2022/01/31 12:46:17;;;;;;;2.17;1.47;;;4.80;99.90;;;;;;4993334;28;20034;-83
2022/01/31 12:49:08;;;;;;;4.90;2.10;;;4.80;99.90;;;;;;5003515;28;20112;-87
2022/01/31 12:51:54;;;;;;;3.00;1.30;;;4.80;99.90;;;;;;5012507;28;20068;-87
2022/01/31 12:54:21;;;;;;;2.93;1.20;;;4.90;99.90;;;;;;5012838;28;20469;-87
2022/01/31 12:56:48;;;;;;;3.33;1.40;;;4.80;99.90;;;;;;5011792;28;20037;-88
2022/01/31 12:59:15;;;;;;;3.23;1.40;;;4.80;99.90;;;;;;5011085;28;20381;-87
2022/01/31 13:01:46;;;;;;;3.30;1.53;;;4.90;99.90;;;;;;5012552;28;20145;-87
2022/01/31 13:04:22;;;;;;;4.10;1.57;;;4.80;99.90;;;;;;5012487;28;20426;-87
2022/01/31 13:06:49;;;;;;;3.67;1.30;;;4.80;99.90;;;;;;5012805;28;20026;-86
2022/01/31 13:09:38;;;;;;;5.33;1.40;;;4.80;99.90;;;;;;5012884;28;20018;-87
2022/01/31 13:12:20;;;;;;;3.70;1.30;;;4.90;99.90;;;;;;5010421;28;20036;-87
2022/01/31 13:14:49;;;;;;;1.80;1.40;;;5.00;99.90;;;;;;5011371;28;20034;-87
2022/01/31 13:17:20;;;;;;;2.10;1.43;;;5.00;99.90;;;;;;5011911;28;20406;-86
2022/01/31 13:19:57;;;;;;;3.23;1.40;;;5.00;99.90;;;;;;5012514;28;20076;-86
2022/01/31 13:22:37;;;;;;;2.50;1.40;;;5.00;99.90;;;;;;5010854;28;20080;-85
2022/01/31 13:25:06;;;;;;;3.13;1.37;;;5.00;99.90;;;;;;5009834;28;20026;-86
2022/01/31 13:27:37;;;;;;;1.80;1.27;;;5.00;99.90;;;;;;5010026;28;20030;-87
2022/01/31 13:30:09;;;;;;;3.67;1.60;;;4.90;99.90;;;;;;5011606;28;20052;-88
2022/01/31 13:32:37;;;;;;;2.70;1.20;;;5.00;99.90;;;;;;5011714;28;20390;-88
2022/01/31 13:35:06;;;;;;;1.97;1.20;;;5.00;99.90;;;;;;5011852;28;20021;-84